Time;durP1;ratioP1;P1;durP2;ratioP2;P2;SDS_P1;SDS_P2;PMS_P1;PMS_P2;Temp;Humidity;BMP_temperature;BMP_pressure;BME280_temperature;BME280_humidity;BME280_pressure;Samples;Min_cycle;Max_cycle;Signal;HPM_P1;HPM_P2
2024/04/21 00:00:51;;;;;;;14.10;1.77;;;5.40;99.90;;;;;;5379188;26;20017;-53
2024/04/21 00:03:17;;;;;;;8.57;1.43;;;5.40;99.90;;;;;;5379728;26;20073;-50
2024/04/21 00:05:43;;;;;;;7.27;1.10;;;5.40;99.90;;;;;;5379636;26;20441;-53
2024/04/21 00:08:11;;;;;;;9.57;2.17;;;5.30;99.90;;;;;;5379155;26;20069;-53
2024/04/21 00:10:37;;;;;;;8.93;1.40;;;5.30;99.90;;;;;;5378808;26;19996;-51
2024/04/21 00:13:03;;;;;;;10.93;1.80;;;5.30;99.90;;;;;;5379709;26;19992;-49
2024/04/21 00:15:29;;;;;;;7.37;1.43;;;5.30;99.90;;;;;;5379600;26;20437;-52
2024/04/21 00:17:56;;;;;;;8.73;1.50;;;5.40;99.90;;;;;;5379592;26;20011;-50
2024/04/21 00:20:22;;;;;;;7.87;1.67;;;5.40;99.90;;;;;;5378512;26;20337;-52
2024/04/21 00:22:49;;;;;;;13.03;2.40;;;5.40;99.90;;;;;;5379577;26;19992;-53
2024/04/21 00:25:15;;;;;;;8.67;1.70;;;5.40;99.90;;;;;;5379579;26;20291;-53
2024/04/21 00:27:42;;;;;;;8.30;1.60;;;5.50;99.90;;;;;;5379452;26;19996;-52
2024/04/21 00:30:10;;;;;;;10.10;1.73;;;5.40;99.90;;;;;;5376835;26;20000;-53
2024/04/21 00:32:40;;;;;;;9.37;1.90;;;5.40;99.90;;;;;;5377825;26;20018;-51
2024/04/21 00:35:06;;;;;;;13.02;1.85;;;5.40;99.90;;;;;;5348298;26;19997;-53
2024/04/21 00:37:32;;;;;;;11.50;1.70;;;5.40;99.90;;;;;;5379519;26;19992;-53
2024/04/21 00:39:58;;;;;;;11.13;1.97;;;5.40;99.90;;;;;;5378484;26;19996;-51
2024/04/21 00:42:24;;;;;;;9.87;1.60;;;5.30;99.90;;;;;;5379499;26;20070;-53
2024/04/21 00:44:50;;;;;;;6.57;1.17;;;5.30;99.90;;;;;;5379127;26;20070;-52
2024/04/21 00:47:16;;;;;;;8.10;1.20;;;5.30;99.90;;;;;;5379128;26;20501;-53
2024/04/21 00:49:44;;;;;;;8.27;1.70;;;5.20;99.90;;;;;;5378074;26;20000;-53
2024/04/21 00:52:11;;;;;;;9.60;1.30;;;5.20;99.90;;;;;;5379498;26;20011;-54
2024/04/21 00:54:37;;;;;;;10.30;1.90;;;5.20;99.90;;;;;;5381908;26;20074;-54
2024/04/21 00:57:04;;;;;;;15.07;1.87;;;5.20;99.90;;;;;;5382623;26;20000;-54
2024/04/21 00:59:33;;;;;;;5.97;1.20;;;5.20;99.90;;;;;;5381687;26;20036;-53
2024/04/21 01:01:59;;;;;;;6.80;1.30;;;5.20;99.90;;;;;;5382275;26;20061;-54
2024/04/21 01:04:26;;;;;;;11.60;2.00;;;5.10;99.90;;;;;;5382637;26;20437;-53
2024/04/21 01:06:52;;;;;;;11.53;1.40;;;5.20;99.90;;;;;;5382419;26;19996;-53
2024/04/21 01:09:18;;;;;;;10.60;1.47;;;5.10;99.90;;;;;;5381765;26;19992;-53
2024/04/21 01:11:50;;;;;;;11.27;1.67;;;5.20;99.90;;;;;;5382180;26;20589;-53
2024/04/21 01:14:16;;;;;;;10.77;1.53;;;5.10;99.90;;;;;;5382346;26;20019;-53
2024/04/21 01:16:42;;;;;;;9.40;1.77;;;5.10;99.90;;;;;;5382003;26;20073;-52
2024/04/21 01:19:08;;;;;;;8.27;1.23;;;5.00;99.90;;;;;;5381151;26;20065;-54
2024/04/21 01:21:34;;;;;;;5.60;1.20;;;5.00;99.90;;;;;;5382315;26;20068;-54
2024/04/21 01:24:00;;;;;;;10.43;1.30;;;5.00;99.90;;;;;;5381847;26;20368;-54
2024/04/21 01:26:26;;;;;;;8.57;1.23;;;4.90;99.90;;;;;;5382274;26;19996;-51
2024/04/21 01:28:52;;;;;;;7.00;1.07;;;4.90;99.90;;;;;;5381374;26;20069;-53
2024/04/21 01:31:18;;;;;;;5.40;1.00;;;4.80;99.90;;;;;;5381926;26;19996;-54
2024/04/21 01:33:44;;;;;;;4.40;0.93;;;4.80;99.90;;;;;;5382144;26;20394;-52
2024/04/21 01:36:10;;;;;;;4.60;1.07;;;4.70;99.90;;;;;;5382163;26;20004;-54
2024/04/21 01:38:37;;;;;;;6.27;0.97;;;4.70;99.90;;;;;;5381250;26;20012;-53
2024/04/21 01:41:03;;;;;;;10.03;1.30;;;4.60;99.90;;;;;;5381995;26;20004;-51
2024/04/21 01:43:29;;;;;;;15.83;2.40;;;4.60;99.90;;;;;;5381902;26;20004;-53
2024/04/21 01:45:55;;;;;;;9.23;1.33;;;4.50;99.90;;;;;;5381803;26;20387;-51
2024/04/21 01:48:21;;;;;;;5.63;1.30;;;4.50;99.90;;;;;;5381718;26;19992;-54
2024/04/21 01:50:48;;;;;;;6.57;1.23;;;4.50;99.90;;;;;;5382089;26;20494;-50
2024/04/21 01:53:14;;;;;;;6.50;1.27;;;4.40;99.90;;;;;;5381982;26;20061;-49
2024/04/21 01:55:40;;;;;;;10.57;2.03;;;4.30;99.90;;;;;;5381755;26;20403;-50
2024/04/21 01:58:06;;;;;;;7.43;1.30;;;4.30;99.90;;;;;;5381815;26;19992;-50
2024/04/21 02:00:33;;;;;;;8.70;1.27;;;4.30;99.90;;;;;;5380729;26;20370;-51
2024/04/21 02:02:59;;;;;;;9.13;2.07;;;4.20;99.90;;;;;;5381970;26;20041;-54
2024/04/21 02:05:25;;;;;;;7.87;1.93;;;4.20;99.90;;;;;;5381887;26;20069;-49
2024/04/21 02:07:51;;;;;;;5.37;1.00;;;4.10;99.90;;;;;;5381744;26;20070;-54
2024/04/21 02:10:18;;;;;;;8.00;1.70;;;4.10;99.90;;;;;;5380726;26;19992;-53
2024/04/21 02:12:44;;;;;;;7.77;1.40;;;4.00;99.90;;;;;;5380923;26;20507;-53
2024/04/21 02:15:10;;;;;;;5.87;1.10;;;3.90;99.90;;;;;;5381299;26;19996;-53
2024/04/21 02:17:36;;;;;;;8.20;1.30;;;3.80;99.90;;;;;;5381550;26;20028;-53
2024/04/21 02:20:02;;;;;;;5.80;1.03;;;3.80;99.90;;;;;;5380030;26;19996;-54
2024/04/21 02:22:28;;;;;;;6.00;0.93;;;3.70;99.90;;;;;;5381524;26;20004;-52
2024/04/21 02:24:54;;;;;;;5.80;1.23;;;3.70;99.90;;;;;;5381242;26;20065;-53
2024/04/21 02:27:20;;;;;;;2.83;1.30;;;3.70;99.90;;;;;;5381288;26;20069;-49
2024/04/21 02:29:46;;;;;;;7.57;1.60;;;3.70;99.90;;;;;;5380585;26;20457;-54
2024/04/21 02:32:12;;;;;;;8.17;1.53;;;3.70;99.90;;;;;;5381164;26;20069;-53
2024/04/21 02:34:38;;;;;;;9.53;1.93;;;3.60;99.90;;;;;;5381140;26;20065;-54
2024/04/21 02:37:04;;;;;;;8.50;1.90;;;3.60;99.90;;;;;;5381161;26;20007;-51
2024/04/21 02:39:30;;;;;;;5.10;1.50;;;3.60;99.90;;;;;;5380280;26;20004;-53
2024/04/21 02:41:56;;;;;;;6.23;1.53;;;3.50;99.90;;;;;;5381004;26;19996;-52
2024/04/21 02:44:22;;;;;;;8.87;2.10;;;3.50;99.90;;;;;;5381032;26;20322;-52
2024/04/21 02:46:48;;;;;;;5.47;1.60;;;3.50;99.90;;;;;;5381200;26;20007;-51
2024/04/21 02:49:15;;;;;;;7.03;1.47;;;3.40;99.90;;;;;;5380074;26;20065;-53
2024/04/21 02:51:41;;;;;;;6.53;1.30;;;3.40;99.90;;;;;;5380858;26;20066;-53
2024/04/21 02:54:07;;;;;;;9.97;1.40;;;3.50;99.90;;;;;;5380925;26;20004;-53
2024/04/21 02:56:33;;;;;;;9.37;1.37;;;3.40;99.90;;;;;;5380921;26;19996;-53
2024/04/21 02:58:59;;;;;;;8.07;1.30;;;3.40;99.90;;;;;;5380001;26;20330;-53
2024/04/21 03:01:25;;;;;;;8.20;1.20;;;3.40;99.90;;;;;;5380513;26;19992;-53
2024/04/21 03:03:51;;;;;;;6.47;1.47;;;3.40;99.90;;;;;;5380871;26;19989;-53
2024/04/21 03:06:17;;;;;;;3.63;1.07;;;3.40;99.90;;;;;;5380869;26;20020;-52
2024/04/21 03:08:43;;;;;;;8.73;1.23;;;3.40;99.90;;;;;;5380280;26;20066;-53
2024/04/21 03:11:09;;;;;;;5.77;1.17;;;3.40;99.90;;;;;;5380607;26;20337;-50
2024/04/21 03:13:35;;;;;;;7.33;1.00;;;3.30;99.90;;;;;;5380589;26;19996;-53
2024/04/21 03:16:04;;;;;;;8.70;1.27;;;3.30;99.90;;;;;;5379150;26;20066;-53
2024/04/21 03:18:30;;;;;;;7.97;1.40;;;3.30;99.90;;;;;;5379452;26;20067;-52
2024/04/21 03:21:00;;;;;;;4.53;1.20;;;3.30;99.90;;;;;;5380385;26;19996;-53
2024/04/21 03:23:26;;;;;;;8.57;1.35;;;3.30;99.90;;;;;;5380712;26;20069;-52
2024/04/21 03:25:52;;;;;;;11.40;1.37;;;3.40;99.90;;;;;;5380418;26;19996;-51
2024/04/21 03:28:18;;;;;;;8.47;1.43;;;3.40;99.90;;;;;;5379911;26;20055;-53
2024/04/21 03:30:58;;;;;;;6.57;1.30;;;3.40;99.90;;;;;;5380230;26;20000;-52
2024/04/21 03:33:24;;;;;;;;;;;3.40;99.90;;;;;;5380620;26;20000;-52
2024/04/21 03:36:03;;;;;;;8.27;1.60;;;3.40;99.90;;;;;;5380281;26;19925;-49
2024/04/21 03:38:30;;;;;;;8.35;1.40;;;3.40;99.90;;;;;;5379509;26;20010;-51
2024/04/21 03:40:56;;;;;;;6.23;1.43;;;3.40;99.90;;;;;;5380254;26;20011;-53
2024/04/21 03:43:22;;;;;;;4.07;1.17;;;3.40;99.90;;;;;;5378437;26;19996;-53
2024/04/21 03:45:48;;;;;;;6.67;1.53;;;3.40;99.90;;;;;;5379538;26;19993;-53
2024/04/21 03:48:14;;;;;;;6.73;1.50;;;3.40;99.90;;;;;;5380364;26;20004;-53
2024/04/21 03:50:41;;;;;;;6.50;1.30;;;3.40;99.90;;;;;;5379039;26;20403;-50
2024/04/21 03:53:13;;;;;;;6.67;2.30;;;3.40;99.90;;;;;;5380151;26;20058;-53
2024/04/21 03:55:39;;;;;;;12.00;1.50;;;3.50;99.90;;;;;;5380391;26;20503;-51
2024/04/21 03:58:05;;;;;;;5.10;1.20;;;3.50;99.90;;;;;;5380063;26;19992;-53
2024/04/21 04:00:36;;;;;;;4.23;1.07;;;3.50;99.90;;;;;;5378870;26;19996;-50
2024/04/21 04:03:02;;;;;;;8.40;1.53;;;3.40;99.90;;;;;;5380014;26;19997;-53
2024/04/21 04:05:28;;;;;;;6.37;1.10;;;3.50;99.90;;;;;;5379753;26;20074;-53
2024/04/21 04:07:54;;;;;;;9.20;1.30;;;3.40;99.90;;;;;;5380034;26;20538;-53
2024/04/21 04:10:20;;;;;;;5.80;1.30;;;3.40;99.90;;;;;;5378519;26;20054;-53
2024/04/21 04:12:46;;;;;;;5.40;1.20;;;3.50;99.90;;;;;;5379720;26;20000;-53
2024/04/21 04:15:12;;;;;;;4.57;1.20;;;3.50;99.90;;;;;;5379566;26;20059;-53
2024/04/21 04:17:39;;;;;;;6.00;1.30;;;3.50;99.90;;;;;;5379647;26;20070;-53
2024/04/21 04:20:07;;;;;;;4.30;1.10;;;3.60;99.90;;;;;;5378544;26;19997;-53
2024/04/21 04:22:33;;;;;;;6.27;1.30;;;3.60;99.90;;;;;;5379897;26;20011;-53
2024/04/21 04:24:59;;;;;;;7.50;1.40;;;3.60;99.90;;;;;;5379557;26;20000;-53
2024/04/21 04:27:25;;;;;;;7.87;1.13;;;3.50;99.90;;;;;;5377796;26;19996;-49
2024/04/21 04:29:51;;;;;;;10.10;1.30;;;3.50;99.90;;;;;;5381749;26;19996;-51
2024/04/21 04:32:18;;;;;;;9.63;1.37;;;3.50;99.90;;;;;;5382984;26;20348;-52
2024/04/21 04:34:44;;;;;;;6.70;1.40;;;3.50;99.90;;;;;;5383144;26;20469;-52
2024/04/21 04:37:10;;;;;;;7.97;1.50;;;3.50;99.90;;;;;;5380426;26;20069;-52
2024/04/21 04:39:36;;;;;;;8.03;1.60;;;3.50;99.90;;;;;;5382019;26;20008;-48
2024/04/21 04:42:02;;;;;;;5.17;1.50;;;3.50;99.90;;;;;;5382659;26;20069;-53
2024/04/21 04:44:28;;;;;;;6.90;1.20;;;3.50;99.90;;;;;;5382634;26;20004;-53
2024/04/21 04:46:54;;;;;;;10.43;1.70;;;3.60;99.90;;;;;;5382579;26;20441;-53
2024/04/21 04:49:20;;;;;;;9.17;1.87;;;3.60;99.90;;;;;;5381370;26;19992;-53
2024/04/21 04:51:46;;;;;;;12.03;1.87;;;3.50;99.90;;;;;;5381942;26;20065;-52
2024/04/21 04:54:12;;;;;;;9.47;1.30;;;3.50;99.90;;;;;;5382598;26;20008;-53
2024/04/21 04:56:38;;;;;;;7.83;1.80;;;3.60;99.90;;;;;;5382634;26;20004;-53
2024/04/21 04:59:04;;;;;;;9.63;1.90;;;3.60;99.90;;;;;;5381633;26;20368;-53
2024/04/21 05:01:30;;;;;;;10.37;2.00;;;3.60;99.90;;;;;;5351369;26;19992;-53
2024/04/21 05:03:56;;;;;;;7.43;1.60;;;3.60;99.90;;;;;;5382461;26;20537;-50
2024/04/21 05:06:22;;;;;;;7.33;2.30;;;3.60;99.90;;;;;;5382432;26;20069;-53
2024/04/21 05:08:48;;;;;;;9.60;1.50;;;3.50;99.90;;;;;;5381732;26;20432;-53
2024/04/21 05:11:14;;;;;;;7.50;1.60;;;3.50;99.90;;;;;;5382457;26;20004;-53
2024/04/21 05:13:40;;;;;;;11.03;1.40;;;3.40;99.90;;;;;;5382466;26;19996;-53
2024/04/21 05:16:06;;;;;;;8.93;1.50;;;3.50;99.90;;;;;;5382291;26;20065;-51
2024/04/21 05:18:32;;;;;;;8.77;1.40;;;3.50;99.90;;;;;;5381568;26;19992;-53
2024/04/21 05:20:58;;;;;;;9.40;1.87;;;3.40;99.90;;;;;;5382025;26;19996;-53
2024/04/21 05:23:24;;;;;;;7.43;2.53;;;3.50;99.90;;;;;;5382292;26;20466;-53
2024/04/21 05:25:50;;;;;;;6.60;1.40;;;3.50;99.90;;;;;;5382169;26;20077;-53
2024/04/21 05:28:16;;;;;;;8.47;1.70;;;3.50;99.90;;;;;;5382116;26;19996;-53
2024/04/21 05:30:42;;;;;;;10.67;2.47;;;3.50;99.90;;;;;;5381941;26;20078;-53
2024/04/21 05:33:08;;;;;;;11.17;1.70;;;3.60;99.90;;;;;;5382111;26;20047;-53
2024/04/21 05:35:34;;;;;;;8.80;1.77;;;3.60;99.90;;;;;;5351648;26;20550;-52
2024/04/21 05:38:00;;;;;;;10.77;1.60;;;3.60;99.90;;;;;;5381850;26;20042;-53
2024/04/21 05:40:27;;;;;;;9.63;2.13;;;3.60;99.90;;;;;;5377942;26;20000;-53
2024/04/21 05:42:53;;;;;;;15.03;1.97;;;3.60;99.90;;;;;;5381266;26;20008;-53
2024/04/21 05:45:19;;;;;;;9.30;1.83;;;3.70;99.90;;;;;;5381759;26;20341;-53
2024/04/21 05:47:45;;;;;;;9.00;2.03;;;3.70;99.90;;;;;;5382001;26;19992;-53
2024/04/21 05:50:11;;;;;;;8.37;1.80;;;3.80;99.90;;;;;;5381040;26;19992;-53
2024/04/21 05:52:37;;;;;;;12.97;2.37;;;3.80;99.90;;;;;;5381813;26;20047;-53
2024/04/21 05:55:04;;;;;;;12.53;2.47;;;3.90;99.90;;;;;;5381728;26;20004;-53
2024/04/21 05:57:30;;;;;;;8.10;2.50;;;3.90;99.90;;;;;;5381832;26;19992;-53
2024/04/21 05:59:56;;;;;;;10.13;2.50;;;4.00;99.90;;;;;;5380813;26;19988;-52
2024/04/21 06:02:22;;;;;;;10.73;3.03;;;4.00;99.90;;;;;;5381372;26;19992;-53
2024/04/21 06:04:48;;;;;;;13.13;2.80;;;4.10;99.90;;;;;;5380147;26;20082;-52
2024/04/21 06:07:14;;;;;;;11.27;2.90;;;4.10;99.90;;;;;;5381801;26;19996;-53
2024/04/21 06:09:40;;;;;;;13.83;3.23;;;4.10;99.90;;;;;;5380869;26;20474;-52
2024/04/21 06:12:07;;;;;;;12.83;2.63;;;4.10;99.90;;;;;;5381563;26;19992;-52
2024/04/21 06:14:33;;;;;;;11.50;2.23;;;4.20;99.90;;;;;;5381485;26;20061;-53
2024/04/21 06:16:59;;;;;;;9.87;2.33;;;4.20;99.90;;;;;;5379836;26;20008;-53
2024/04/21 06:19:25;;;;;;;6.47;1.90;;;4.20;99.90;;;;;;5378444;26;20069;-53
2024/04/21 06:21:51;;;;;;;8.73;1.90;;;4.30;99.90;;;;;;5381253;26;20367;-50
2024/04/21 06:24:19;;;;;;;6.10;1.37;;;4.30;99.90;;;;;;5381752;26;20037;-53
2024/04/21 06:26:46;;;;;;;6.40;1.50;;;4.30;99.90;;;;;;5381339;26;20369;-49
2024/04/21 06:29:12;;;;;;;10.07;1.60;;;4.40;99.90;;;;;;5380560;26;20065;-53
2024/04/21 06:31:42;;;;;;;4.70;1.63;;;4.50;99.90;;;;;;5381147;26;20057;-52
2024/04/21 06:34:09;;;;;;;8.13;1.75;;;4.60;99.90;;;;;;5378805;26;20350;-52
2024/04/21 06:36:35;;;;;;;10.47;1.60;;;4.80;99.90;;;;;;5381313;26;20460;-52
2024/04/21 06:39:01;;;;;;;11.00;2.07;;;5.00;99.90;;;;;;5380452;26;20407;-52
2024/04/21 06:41:27;;;;;;;8.47;1.73;;;5.20;99.90;;;;;;5381123;26;19996;-53
2024/04/21 06:43:53;;;;;;;9.23;1.70;;;5.20;99.90;;;;;;5381191;26;20043;-52
2024/04/21 06:46:19;;;;;;;12.47;1.73;;;5.20;99.90;;;;;;5380654;26;19996;-53
2024/04/21 06:48:46;;;;;;;6.03;1.60;;;5.30;99.90;;;;;;5380273;26;20005;-53
2024/04/21 06:51:12;;;;;;;9.23;2.03;;;5.40;99.90;;;;;;5379734;26;19992;-52
2024/04/21 06:53:38;;;;;;;12.70;3.40;;;5.40;99.90;;;;;;5381048;26;19992;-48
2024/04/21 06:56:04;;;;;;;9.77;2.30;;;5.40;99.90;;;;;;5380917;26;20065;-48
2024/04/21 06:58:30;;;;;;;7.63;2.20;;;5.40;99.90;;;;;;5380962;26;19996;-49
2024/04/21 07:00:56;;;;;;;7.17;2.10;;;5.40;99.90;;;;;;5381354;26;20078;-51
2024/04/21 07:03:22;;;;;;;12.30;2.47;;;5.40;99.90;;;;;;5382143;26;20333;-49
2024/04/21 07:05:49;;;;;;;10.20;3.10;;;5.40;99.90;;;;;;5381532;26;20006;-48
2024/04/21 07:08:15;;;;;;;10.23;2.43;;;5.40;99.90;;;;;;5381134;26;19996;-53
2024/04/21 07:10:42;;;;;;;8.53;2.63;;;5.50;99.90;;;;;;5380096;26;20327;-53
2024/04/21 07:13:08;;;;;;;9.57;2.20;;;5.40;99.90;;;;;;5380766;26;19992;-49
2024/04/21 07:15:34;;;;;;;7.90;2.30;;;5.50;99.90;;;;;;5381258;26;19992;-49
2024/04/21 07:18:00;;;;;;;7.60;2.53;;;5.50;99.90;;;;;;5381202;26;19996;-48
2024/04/21 07:20:26;;;;;;;10.13;2.93;;;5.50;99.90;;;;;;5379826;26;19996;-49
2024/04/21 07:22:52;;;;;;;9.27;2.70;;;5.70;99.90;;;;;;5380829;26;20058;-48
2024/04/21 07:25:18;;;;;;;8.37;2.87;;;5.90;99.90;;;;;;5380982;26;20441;-48
2024/04/21 07:27:44;;;;;;;6.53;3.03;;;5.90;99.90;;;;;;5380732;26;19989;-48
2024/04/21 07:30:11;;;;;;;10.83;3.70;;;6.00;99.90;;;;;;5379621;26;20039;-48
2024/04/21 07:32:37;;;;;;;10.83;3.40;;;6.00;99.90;;;;;;5380351;26;20004;-50
2024/04/21 07:35:03;;;;;;;8.60;2.90;;;6.00;99.90;;;;;;5380830;26;19992;-53
2024/04/21 07:37:29;;;;;;;8.33;3.03;;;6.10;99.90;;;;;;5380352;26;20130;-53
2024/04/21 07:39:56;;;;;;;8.27;2.20;;;6.20;99.90;;;;;;5379348;26;19996;-52
2024/04/21 07:42:22;;;;;;;7.80;2.13;;;6.30;99.90;;;;;;5380011;26;19992;-53
2024/04/21 07:44:48;;;;;;;10.23;2.20;;;6.30;99.90;;;;;;5380363;26;20043;-53
2024/04/21 07:47:14;;;;;;;7.17;1.97;;;6.30;99.90;;;;;;5380225;26;20379;-52
2024/04/21 07:49:40;;;;;;;9.53;2.70;;;6.30;99.90;;;;;;5379429;26;19997;-53
2024/04/21 07:52:07;;;;;;;11.17;2.50;;;6.40;99.90;;;;;;5379260;26;19992;-54
2024/04/21 07:54:33;;;;;;;5.73;2.47;;;6.40;99.90;;;;;;5378215;26;20047;-54
2024/04/21 07:56:59;;;;;;;15.03;3.80;;;6.50;99.90;;;;;;5378320;26;20000;-54
2024/04/21 07:59:25;;;;;;;10.13;3.20;;;6.60;99.90;;;;;;5379280;26;20461;-53
2024/04/21 08:01:51;;;;;;;7.17;2.40;;;6.60;99.90;;;;;;5380020;26;20411;-54
2024/04/21 08:04:17;;;;;;;8.07;3.23;;;6.70;99.90;;;;;;5383229;26;19996;-53
2024/04/21 08:06:43;;;;;;;5.87;2.83;;;6.80;99.90;;;;;;5383481;26;19992;-51
2024/04/21 08:09:09;;;;;;;5.17;2.20;;;6.90;99.90;;;;;;5381850;26;20065;-53
2024/04/21 08:11:35;;;;;;;6.50;2.27;;;6.90;99.90;;;;;;5383472;26;19996;-53
2024/04/21 08:14:01;;;;;;;6.90;2.00;;;6.90;99.90;;;;;;5383284;26;19996;-54
2024/04/21 08:16:27;;;;;;;6.00;2.67;;;6.90;99.90;;;;;;5383119;26;20021;-54
2024/04/21 08:18:53;;;;;;;8.83;2.60;;;6.90;99.90;;;;;;5382392;26;19991;-52
2024/04/21 08:21:19;;;;;;;5.20;2.53;;;6.90;99.90;;;;;;5382928;26;20070;-54
2024/04/21 08:23:45;;;;;;;6.07;2.57;;;6.90;99.90;;;;;;5382892;26;20403;-53
2024/04/21 08:26:11;;;;;;;6.57;2.50;;;6.90;99.90;;;;;;5383117;26;19992;-50
2024/04/21 08:28:37;;;;;;;6.13;2.37;;;6.80;99.90;;;;;;5382110;26;20066;-54
2024/04/21 08:31:03;;;;;;;9.50;2.60;;;6.90;99.90;;;;;;5382853;26;19992;-53
2024/04/21 08:33:29;;;;;;;6.37;2.90;;;6.80;99.90;;;;;;5383129;26;19992;-53
2024/04/21 08:35:57;;;;;;;5.50;2.23;;;6.80;99.90;;;;;;5382828;26;20081;-54
2024/04/21 08:38:24;;;;;;;5.70;2.53;;;6.90;99.90;;;;;;5381851;26;20068;-54
2024/04/21 08:40:51;;;;;;;5.90;2.33;;;7.00;99.90;;;;;;5382675;26;20069;-51
2024/04/21 08:43:25;;;;;;;6.03;2.67;;;7.10;99.90;;;;;;5382853;26;19996;-53
2024/04/21 08:45:56;;;;;;;5.43;2.40;;;7.20;99.90;;;;;;5382974;26;20072;-50
2024/04/21 08:48:25;;;;;;;9.27;2.50;;;7.40;99.90;;;;;;5381963;26;19999;-51
2024/04/21 08:50:52;;;;;;;3.92;2.25;;;7.50;99.90;;;;;;5382589;26;20007;-53
2024/04/21 08:53:18;;;;;;;3.90;2.30;;;7.50;99.90;;;;;;5380782;26;20000;-49
2024/04/21 08:55:59;;;;;;;7.23;2.37;;;7.50;99.90;;;;;;5382785;26;20407;-50
2024/04/21 08:58:26;;;;;;;5.57;2.73;;;7.50;99.90;;;;;;5381933;26;19997;-50
2024/04/21 09:00:55;;;;;;;5.47;2.20;;;7.60;99.90;;;;;;5380818;26;20074;-52
2024/04/21 09:03:21;;;;;;;;;;;7.60;99.90;;;;;;5382460;26;19996;-53
2024/04/21 09:05:57;;;;;;;4.63;2.03;;;7.50;99.90;;;;;;5382470;26;19937;-51
2024/04/21 09:08:23;;;;;;;3.83;2.13;;;7.60;99.90;;;;;;5381170;26;20004;-49
2024/04/21 09:10:49;;;;;;;7.87;3.23;;;7.60;99.90;;;;;;5382007;26;20332;-53
2024/04/21 09:13:16;;;;;;;6.23;2.93;;;7.70;99.90;;;;;;5381389;26;20069;-50
2024/04/21 09:15:42;;;;;;;5.60;2.50;;;7.80;99.90;;;;;;5381785;26;19992;-52
2024/04/21 09:18:08;;;;;;;5.47;2.63;;;7.90;99.90;;;;;;5382978;26;20039;-49
2024/04/21 09:20:37;;;;;;;5.83;2.17;;;8.20;99.90;;;;;;5382271;26;19996;-54
2024/04/21 09:23:05;;;;;;;5.85;2.38;;;8.40;99.90;;;;;;5382275;26;20411;-53
2024/04/21 09:25:31;;;;;;;4.13;2.20;;;8.70;99.90;;;;;;5382339;26;19996;-49
2024/04/21 09:27:57;;;;;;;5.10;2.30;;;8.80;99.90;;;;;;5382369;26;20039;-54
2024/04/21 09:30:23;;;;;;;5.33;2.60;;;8.80;99.90;;;;;;5381313;26;20004;-54
2024/04/21 09:32:49;;;;;;;5.80;2.37;;;8.70;99.90;;;;;;5382321;26;20461;-54
2024/04/21 09:35:15;;;;;;;5.43;2.60;;;8.60;99.90;;;;;;5382259;26;20081;-54
2024/04/21 09:37:45;;;;;;;6.27;2.27;;;8.50;99.90;;;;;;5382156;26;20046;-54
2024/04/21 09:40:14;;;;;;;6.73;2.23;;;8.50;99.90;;;;;;5381225;26;20000;-52
2024/04/21 09:42:42;;;;;;;3.30;2.03;;;8.60;99.90;;;;;;5382296;26;20407;-54
2024/04/21 09:45:08;;;;;;;6.20;2.27;;;8.60;99.90;;;;;;5382041;26;20457;-53
2024/04/21 09:47:36;;;;;;;8.03;2.30;;;8.50;99.90;;;;;;5382153;26;20000;-54
2024/04/21 09:50:03;;;;;;;5.47;2.57;;;8.50;99.90;;;;;;5381272;26;20452;-53
2024/04/21 09:52:32;;;;;;;4.53;2.23;;;8.50;99.90;;;;;;5382182;26;20464;-53
2024/04/21 09:54:58;;;;;;;6.90;2.15;;;8.60;99.90;;;;;;5379323;26;19993;-51
2024/04/21 09:57:25;;;;;;;4.50;1.97;;;8.80;99.90;;;;;;5381613;26;20004;-51
2024/04/21 10:00:03;;;;;;;4.17;1.93;;;8.90;99.90;;;;;;5379274;26;19992;-52
2024/04/21 10:02:37;;;;;;;4.93;2.03;;;9.40;99.90;;;;;;5381957;26;20065;-51
2024/04/21 10:05:12;;;;;;;3.37;1.80;;;9.90;99.90;;;;;;5381321;26;20322;-50
2024/04/21 10:07:39;;;;;;;3.50;2.20;;;10.30;99.90;;;;;;5381678;26;19996;-53
2024/04/21 10:10:10;;;;;;;2.60;1.73;;;10.30;99.90;;;;;;5380185;26;20000;-52
2024/04/21 10:12:37;;;;;;;3.73;1.90;;;10.20;99.90;;;;;;5381566;26;20028;-53
2024/04/21 10:15:05;;;;;;;3.70;2.10;;;10.20;99.90;;;;;;5381525;26;20008;-54
2024/04/21 10:17:32;;;;;;;2.50;1.47;;;10.50;99.90;;;;;;5381575;26;20000;-54
2024/04/21 10:20:06;;;;;;;3.10;1.50;;;10.90;99.90;;;;;;5380707;26;20024;-52
2024/04/21 10:22:37;;;;;;;4.30;1.90;;;11.20;99.90;;;;;;5381360;26;20000;-54
2024/04/21 10:25:03;;;;;;;2.63;1.63;;;11.40;99.40;;;;;;5381717;26;20000;-49
2024/04/21 10:27:29;;;;;;;2.53;1.60;;;11.10;99.30;;;;;;5381084;26;19996;-54
2024/04/21 10:29:56;;;;;;;4.50;2.00;;;10.80;99.90;;;;;;5380426;26;19996;-53
2024/04/21 10:32:26;;;;;;;3.10;1.33;;;10.60;99.90;;;;;;5380940;26;20095;-51
2024/04/21 10:34:55;;;;;;;2.70;1.80;;;10.50;99.90;;;;;;5381721;26;20453;-49
2024/04/21 10:37:25;;;;;;;2.72;1.50;;;10.60;99.90;;;;;;5381128;26;19992;-50
2024/04/21 10:40:04;;;;;;;3.35;1.65;;;11.10;99.90;;;;;;5380536;26;20011;-54
2024/04/21 10:42:36;;;;;;;2.67;1.60;;;12.00;99.90;;;;;;5381187;26;20000;-53
2024/04/21 10:45:03;;;;;;;3.80;1.42;;;12.80;98.50;;;;;;5381174;26;20032;-53
2024/04/21 10:47:29;;;;;;;2.10;1.40;;;13.60;96.50;;;;;;5380977;26;20008;-54
2024/04/21 10:49:55;;;;;;;3.00;1.55;;;14.20;96.20;;;;;;5380036;26;20382;-54
2024/04/21 10:52:21;;;;;;;2.45;1.50;;;14.30;95.20;;;;;;5381197;26;20333;-54
2024/04/21 10:54:48;;;;;;;3.05;1.40;;;14.50;96.30;;;;;;5380991;26;20000;-54
2024/04/21 10:57:15;;;;;;;4.10;1.60;;;14.80;93.80;;;;;;5379333;26;20000;-54
2024/04/21 10:59:41;;;;;;;2.58;1.30;;;15.20;95.30;;;;;;5380153;26;20073;-53
2024/04/21 11:02:08;;;;;;;4.13;1.63;;;15.60;93.60;;;;;;5380702;26;20344;-54
2024/04/21 11:04:35;;;;;;;4.15;1.50;;;15.50;93.00;;;;;;5380733;26;20036;-52
2024/04/21 11:07:02;;;;;;;2.47;1.35;;;14.80;92.60;;;;;;5381160;26;20011;-54
2024/04/21 11:09:28;;;;;;;2.83;1.33;;;14.10;93.10;;;;;;5380322;26;19993;-54
2024/04/21 11:11:54;;;;;;;2.95;1.50;;;13.40;93.80;;;;;;5380799;26;20507;-50
2024/04/21 11:14:21;;;;;;;6.70;3.40;;;12.80;94.10;;;;;;5380704;26;19996;-54
2024/04/21 11:16:53;;;;;;;4.53;2.65;;;12.50;94.50;;;;;;5380671;26;20000;-54
2024/04/21 11:19:21;;;;;;;2.30;1.23;;;12.00;95.40;;;;;;5378050;26;19996;-52
2024/04/21 11:21:47;;;;;;;2.17;1.25;;;11.70;96.50;;;;;;5380564;26;20008;-54
2024/04/21 11:24:13;;;;;;;2.78;1.40;;;11.60;97.30;;;;;;5380040;26;20522;-51
2024/04/21 11:26:40;;;;;;;2.40;1.30;;;11.60;97.20;;;;;;5379984;26;20069;-54
2024/04/21 11:29:06;;;;;;;3.80;1.73;;;11.70;97.40;;;;;;5379640;26;20061;-54
2024/04/21 11:31:32;;;;;;;2.05;1.30;;;11.90;95.80;;;;;;5380420;26;20008;-51
2024/04/21 11:34:02;;;;;;;2.17;1.60;;;12.00;95.40;;;;;;5380395;26;19996;-54
2024/04/21 11:36:30;;;;;;;2.65;1.65;;;12.20;96.60;;;;;;5379240;26;20011;-54
2024/04/21 11:38:56;;;;;;;2.60;1.40;;;12.10;96.20;;;;;;5379309;26;20043;-52
2024/04/21 11:41:22;;;;;;;3.28;1.75;;;11.90;95.90;;;;;;5380380;26;19996;-53
2024/04/21 11:43:52;;;;;;;2.92;1.85;;;11.50;95.80;;;;;;5380130;26;20405;-49
2024/04/21 11:46:17;;;;;;;;;;;11.20;97.40;;;;;;5381003;26;20008;-51
2024/04/21 11:48:51;;;;;;;2.33;1.40;;;11.00;96.20;;;;;;5379527;26;19938;-49
2024/04/21 11:51:17;;;;;;;2.58;1.38;;;10.80;96.30;;;;;;5378337;26;20400;-50
2024/04/21 11:53:43;;;;;;;3.53;1.45;;;10.90;97.40;;;;;;5380405;26;20069;-53
2024/04/21 11:56:09;;;;;;;3.90;1.40;;;11.20;97.40;;;;;;5380121;26;20066;-51
2024/04/21 11:58:35;;;;;;;2.47;1.15;;;11.20;98.60;;;;;;5379360;26;20032;-50
2024/04/21 12:01:02;;;;;;;2.70;1.42;;;11.30;96.40;;;;;;5380151;26;20449;-50
2024/04/21 12:03:28;;;;;;;1.88;1.15;;;11.40;97.90;;;;;;5378218;26;19992;-54
2024/04/21 12:05:54;;;;;;;2.38;1.48;;;11.60;96.80;;;;;;5379982;26;19992;-52
2024/04/21 12:08:20;;;;;;;2.08;1.33;;;11.80;95.10;;;;;;5379169;26;20066;-49
2024/04/21 12:10:46;;;;;;;1.98;1.17;;;11.90;96.70;;;;;;5379718;26;19996;-51
2024/04/21 12:13:12;;;;;;;2.30;1.27;;;11.80;93.70;;;;;;5380379;26;19992;-51
2024/04/21 12:18:33;;;;;;;4.18;1.30;;;11.20;95.80;;;;;;5376311;26;20048;-50
2024/04/21 12:20:59;;;;;;;2.53;1.30;;;10.90;96.00;;;;;;5397412;26;19995;-49
2024/04/21 12:23:25;;;;;;;2.27;1.33;;;10.90;96.30;;;;;;5414535;26;20000;-50
2024/04/21 12:25:51;;;;;;;1.53;1.03;;;10.80;97.70;;;;;;5415256;26;19996;-50
2024/04/21 12:28:17;;;;;;;1.73;1.00;;;11.00;96.60;;;;;;5415182;26;20060;-50
2024/04/21 12:30:43;;;;;;;2.33;1.25;;;11.30;96.80;;;;;;5414362;26;20006;-49
2024/04/21 12:33:09;;;;;;;2.92;1.15;;;11.50;97.20;;;;;;5414713;26;20014;-50
2024/04/21 12:35:35;;;;;;;2.30;0.90;;;11.90;97.70;;;;;;5414877;26;20007;-48
2024/04/21 12:38:03;;;;;;;3.92;1.27;;;12.20;96.10;;;;;;5414722;26;20386;-49
2024/04/21 12:40:29;;;;;;;3.30;1.20;;;12.30;94.90;;;;;;5413872;26;19996;-49
2024/04/21 12:42:55;;;;;;;2.78;1.33;;;12.20;96.60;;;;;;5414626;26;19995;-50
2024/04/21 12:45:21;;;;;;;2.22;1.40;;;12.00;96.50;;;;;;5414872;26;20517;-49
2024/04/21 12:47:47;;;;;;;4.15;1.52;;;11.70;95.40;;;;;;5414581;26;19996;-50
2024/04/21 12:50:13;;;;;;;3.83;1.50;;;11.50;95.20;;;;;;5416032;26;20124;-50
2024/04/21 12:52:39;;;;;;;3.25;1.40;;;11.50;96.20;;;;;;5418212;26;19996;-47